Berwick Upon Tweed, United Kingdom

3:06 PM GMT on February 12, 2016 (GMT +0000)
Letham Shank Farm | | Change Station
CLOSE
Current Station
Personal Weather Station
Location: Berwick-upon-Tweed, NORTHUMBERLAND
Elevation: 187 ft
Nearby Weather Stations

Elev 187 ft 55.78 °N, 2.04 °W | Updated 1 minute ago

Partly Cloudy
Partly Cloudy
42.4 °F
Feels Like 42 °F
N
2.2
Wind Variable Wind from ESE
Gusts 6.6 mph

Today
High -- | Low -- °F
--% Chance of Precip.
Yesterday
High -- | Low -- °F
Precip. -- in
Pressure 29.44 in
Visibility 6.2 miles
Clouds Few 1900 ft
Windchill 42 °F
Dew Point 37 °F
Humidity 80%
Rainfall 0.00 in
Snow Depth Not available.
7:40 AM 5:04 PM
Waxing Crescent, 21% visible
METAR EGQM 121450Z AUTO 10005KT 9999 FEW019/// 07/02 Q0997
Pressure 29.44 in
Visibility 6.2 miles
Clouds Few 1900 ft
Windchill 42 °F
Dew Point 37 °F
Humidity 80%
Rainfall 0.00 in
Snow Depth Not available.
7:40 AM 5:04 PM
Waxing Crescent, 21% visible
METAR EGQM 121450Z AUTO 10005KT 9999 FEW019/// 07/02 Q0997

10-Day Weather Forecast

Almanac

Astronomy

Feb. 12, 2016 Rise Set
Actual Time
Civil Twilight
Nautical Twilight
Astronomical Twilight
Moon
Length of Visible Light
Length of Day
Tomorrow will be .
, % of the Moon is Illuminated

Today's Extremes

Country Highs Country Lows

Community

WunderPhotos

Upload Photos

1,892,323 photos uploaded!

WunderBlog® & News

Nearby

Air Quality

  Air Quality AQ Index Pollutant
Not available.

Snow Depth

Station Depth Elevation

Earthquake Activity

City Distance Mag. Time & Date
Minimum magnitude displayed is 2.5.

Coastal Water Temperatures

Place Temperature

Stations

Nearby Weather Stations

Station Location Temp. Windchill Dew Point Humidity Wind Precip. Elev Updated Type